sensor_id;sensor_type;location;lat;lon;timestamp;pressure;altitude;pressure_sealevel;temperature;humidity
27202;BME280;14717;46.924;15.474;2023-01-01T00:01:13;98638.41;;;1.32;100.00
27202;BME280;14717;46.924;15.474;2023-01-01T00:03:39;98633.53;;;1.47;100.00
27202;BME280;14717;46.924;15.474;2023-01-01T00:06:08;98638.97;;;1.47;100.00
27202;BME280;14717;46.924;15.474;2023-01-01T00:08:35;98642.75;;;1.39;100.00
27202;BME280;14717;46.924;15.474;2023-01-01T00:11:05;98646.78;;;1.37;100.00
27202;BME280;14717;46.924;15.474;2023-01-01T00:13:30;98649.31;;;1.32;100.00
27202;BME280;14717;46.924;15.474;2023-01-01T00:16:03;98646.78;;;1.30;100.00
27202;BME280;14717;46.924;15.474;2023-01-01T00:18:28;98640.75;;;1.28;100.00
27202;BME280;14717;46.924;15.474;2023-01-01T00:21:01;98637.63;;;1.19;100.00
27202;BME280;14717;46.924;15.474;2023-01-01T00:23:26;98636.75;;;1.25;100.00
27202;BME280;14717;46.924;15.474;2023-01-01T00:25:52;98637.59;;;1.31;100.00
27202;BME280;14717;46.924;15.474;2023-01-01T00:28:17;98623.97;;;1.31;100.00
27202;BME280;14717;46.924;15.474;2023-01-01T00:30:42;98631.69;;;1.34;100.00
27202;BME280;14717;46.924;15.474;2023-01-01T00:33:08;98634.03;;;1.25;100.00
27202;BME280;14717;46.924;15.474;2023-01-01T00:35:33;98633.41;;;1.23;100.00
27202;BME280;14717;46.924;15.474;2023-01-01T00:37:59;98632.44;;;1.11;100.00
27202;BME280;14717;46.924;15.474;2023-01-01T00:40:24;98636.56;;;1.20;100.00
27202;BME280;14717;46.924;15.474;2023-01-01T00:42:49;98635.56;;;1.14;100.00
27202;BME280;14717;46.924;15.474;2023-01-01T00:45:15;98636.22;;;0.97;100.00
27202;BME280;14717;46.924;15.474;2023-01-01T00:47:40;98633.28;;;1.05;100.00
27202;BME280;14717;46.924;15.474;2023-01-01T00:50:06;98629.97;;;0.90;100.00
27202;BME280;14717;46.924;15.474;2023-01-01T00:52:31;98631.84;;;0.96;100.00
27202;BME280;14717;46.924;15.474;2023-01-01T00:54:57;98630.84;;;0.84;100.00
27202;BME280;14717;46.924;15.474;2023-01-01T00:57:22;98633.38;;;0.85;100.00
27202;BME280;14717;46.924;15.474;2023-01-01T00:59:47;98634.38;;;0.91;100.00
27202;BME280;14717;46.924;15.474;2023-01-01T01:02:13;98645.03;;;0.99;100.00
27202;BME280;14717;46.924;15.474;2023-01-01T01:04:38;98646.50;;;0.88;100.00
27202;BME280;14717;46.924;15.474;2023-01-01T01:07:04;98633.19;;;0.68;100.00
27202;BME280;14717;46.924;15.474;2023-01-01T01:09:29;98638.41;;;0.76;100.00
27202;BME280;14717;46.924;15.474;2023-01-01T01:11:55;98645.91;;;0.67;100.00
27202;BME280;14717;46.924;15.474;2023-01-01T01:14:20;98629.81;;;0.72;100.00
27202;BME280;14717;46.924;15.474;2023-01-01T01:16:45;98635.03;;;0.74;100.00
27202;BME280;14717;46.924;15.474;2023-01-01T01:19:11;98640.88;;;0.77;100.00
27202;BME280;14717;46.924;15.474;2023-01-01T01:21:41;98648.19;;;0.83;100.00
27202;BME280;14717;46.924;15.474;2023-01-01T01:24:08;98637.75;;;0.80;100.00
27202;BME280;14717;46.924;15.474;2023-01-01T01:26:34;98643.59;;;0.77;100.00
27202;BME280;14717;46.924;15.474;2023-01-01T01:29:01;98637.53;;;0.75;100.00
27202;BME280;14717;46.924;15.474;2023-01-01T01:31:29;98641.13;;;0.69;100.00
27202;BME280;14717;46.924;15.474;2023-01-01T01:33:55;98641.34;;;0.74;100.00
27202;BME280;14717;46.924;15.474;2023-01-01T01:36:21;98630.09;;;0.51;100.00
27202;BME280;14717;46.924;15.474;2023-01-01T01:38:48;98644.06;;;0.68;100.00
27202;BME280;14717;46.924;15.474;2023-01-01T01:41:15;98627.16;;;0.53;100.00
27202;BME280;14717;46.924;15.474;2023-01-01T01:48:38;98643.44;;;0.59;100.00
27202;BME280;14717;46.924;15.474;2023-01-01T01:51:05;98630.47;;;0.68;100.00
27202;BME280;14717;46.924;15.474;2023-01-01T01:53:37;98632.59;;;0.53;100.00
27202;BME280;14717;46.924;15.474;2023-01-01T01:56:09;98634.22;;;0.60;100.00
27202;BME280;14717;46.924;15.474;2023-01-01T01:58:37;98617.09;;;0.60;100.00
27202;BME280;14717;46.924;15.474;2023-01-01T02:01:03;98627.34;;;0.64;100.00
27202;BME280;14717;46.924;15.474;2023-01-01T02:03:48;98620.44;;;0.62;100.00
27202;BME280;14717;46.924;15.474;2023-01-01T02:06:16;98628.41;;;0.50;100.00
27202;BME280;14717;46.924;15.474;2023-01-01T02:08:42;98615.91;;;0.30;100.00
27202;BME280;14717;46.924;15.474;2023-01-01T02:11:08;98614.19;;;0.42;100.00
27202;BME280;14717;46.924;15.474;2023-01-01T02:13:33;98610.47;;;0.37;100.00
27202;BME280;14717;46.924;15.474;2023-01-01T02:16:11;98602.94;;;0.32;100.00
27202;BME280;14717;46.924;15.474;2023-01-01T02:19:00;98593.75;;;0.40;100.00
27202;BME280;14717;46.924;15.474;2023-01-01T02:21:33;98593.75;;;0.40;100.00
27202;BME280;14717;46.924;15.474;2023-01-01T02:26:50;98586.59;;;0.51;100.00
27202;BME280;14717;46.924;15.474;2023-01-01T02:34:34;98567.41;;;0.21;100.00
27202;BME280;14717;46.924;15.474;2023-01-01T02:37:04;98570.34;;;0.26;100.00
27202;BME280;14717;46.924;15.474;2023-01-01T02:39:33;98565.94;;;0.31;100.00
27202;BME280;14717;46.924;15.474;2023-01-01T02:42:02;98556.94;;;0.43;100.00
27202;BME280;14717;46.924;15.474;2023-01-01T02:44:31;98556.50;;;0.53;100.00
27202;BME280;14717;46.924;15.474;2023-01-01T02:47:08;98555.44;;;0.60;100.00
27202;BME280;14717;46.924;15.474;2023-01-01T02:49:37;98554.41;;;0.55;100.00
27202;BME280;14717;46.924;15.474;2023-01-01T02:52:08;98550.69;;;0.37;100.00
27202;BME280;14717;46.924;15.474;2023-01-01T02:54:47;98551.31;;;0.26;100.00
27202;BME280;14717;46.924;15.474;2023-01-01T02:57:38;98557.97;;;0.42;100.00
27202;BME280;14717;46.924;15.474;2023-01-01T03:00:08;98559.66;;;0.37;100.00
27202;BME280;14717;46.924;15.474;2023-01-01T03:06:18;98562.78;;;0.41;100.00
27202;BME280;14717;46.924;15.474;2023-01-01T03:11:17;98560.88;;;0.47;100.00
27202;BME280;14717;46.924;15.474;2023-01-01T03:14:13;98562.81;;;0.34;100.00
27202;BME280;14717;46.924;15.474;2023-01-01T03:16:49;98561.56;;;0.37;100.00
27202;BME280;14717;46.924;15.474;2023-01-01T03:19:20;98569.94;;;0.29;100.00
27202;BME280;14717;46.924;15.474;2023-01-01T03:21:52;98584.13;;;0.24;100.00
27202;BME280;14717;46.924;15.474;2023-01-01T03:24:32;98584.13;;;0.31;100.00
27202;BME280;14717;46.924;15.474;2023-01-01T03:27:02;98586.63;;;0.32;100.00
27202;BME280;14717;46.924;15.474;2023-01-01T03:29:30;98584.13;;;0.11;100.00
27202;BME280;14717;46.924;15.474;2023-01-01T03:31:58;98578.28;;;0.08;100.00
27202;BME280;14717;46.924;15.474;2023-01-01T03:34:35;98572.66;;;0.16;100.00
27202;BME280;14717;46.924;15.474;2023-01-01T03:37:06;98567.00;;;0.17;100.00
27202;BME280;14717;46.924;15.474;2023-01-01T03:39:43;98578.28;;;0.27;100.00
27202;BME280;14717;46.924;15.474;2023-01-01T03:42:18;98555.13;;;0.25;100.00
27202;BME280;14717;46.924;15.474;2023-01-01T03:44:53;98562.81;;;0.28;100.00
27202;BME280;14717;46.924;15.474;2023-01-01T03:47:22;98560.09;;;0.28;100.00
27202;BME280;14717;46.924;15.474;2023-01-01T03:49:48;98562.19;;;0.19;100.00
27202;BME280;14717;46.924;15.474;2023-01-01T03:55:41;98561.59;;;0.04;100.00
27202;BME280;14717;46.924;15.474;2023-01-01T03:58:30;98553.66;;;0.16;100.00
27202;BME280;14717;46.924;15.474;2023-01-01T04:01:36;98556.56;;;0.14;100.00
27202;BME280;14717;46.924;15.474;2023-01-01T04:04:05;98562.81;;;0.21;100.00
27202;BME280;14717;46.924;15.474;2023-01-01T04:06:32;98547.38;;;0.28;100.00
27202;BME280;14717;46.924;15.474;2023-01-01T04:08:59;98555.53;;;0.22;100.00
27202;BME280;14717;46.924;15.474;2023-01-01T04:11:28;98566.59;;;0.20;100.00
27202;BME280;14717;46.924;15.474;2023-01-01T04:14:13;98571.16;;;0.26;100.00
27202;BME280;14717;46.924;15.474;2023-01-01T04:16:49;98575.97;;;0.31;100.00
27202;BME280;14717;46.924;15.474;2023-01-01T04:19:15;98571.16;;;0.33;100.00
27202;BME280;14717;46.924;15.474;2023-01-01T04:21:40;98555.94;;;0.19;100.00
27202;BME280;14717;46.924;15.474;2023-01-01T04:24:05;98553.63;;;0.22;100.00
27202;BME280;14717;46.924;15.474;2023-01-01T04:26:31;98556.34;;;0.22;100.00
27202;BME280;14717;46.924;15.474;2023-01-01T04:28:56;98553.22;;;0.12;100.00
27202;BME280;14717;46.924;15.474;2023-01-01T04:31:22;98553.66;;;0.03;100.00
27202;BME280;14717;46.924;15.474;2023-01-01T04:33:47;98549.91;;;0.10;100.00
27202;BME280;14717;46.924;15.474;2023-01-01T04:36:12;98555.94;;;0.19;100.00
27202;BME280;14717;46.924;15.474;2023-01-01T04:38:38;98564.50;;;0.22;100.00
27202;BME280;14717;46.924;15.474;2023-01-01T04:41:03;98556.56;;;0.21;100.00
27202;BME280;14717;46.924;15.474;2023-01-01T04:43:30;98564.50;;;0.29;100.00
27202;BME280;14717;46.924;15.474;2023-01-01T04:46:00;98567.81;;;0.31;100.00
27202;BME280;14717;46.924;15.474;2023-01-01T04:48:26;98562.81;;;0.34;100.00
27202;BME280;14717;46.924;15.474;2023-01-01T04:51:03;98561.75;;;0.42;100.00
27202;BME280;14717;46.924;15.474;2023-01-01T04:53:31;98560.31;;;0.26;100.00
27202;BME280;14717;46.924;15.474;2023-01-01T04:56:14;98552.81;;;0.09;100.00
27202;BME280;14717;46.924;15.474;2023-01-01T04:58:41;98544.88;;;0.14;100.00
27202;BME280;14717;46.924;15.474;2023-01-01T05:01:07;98555.53;;;0.22;100.00
27202;BME280;14717;46.924;15.474;2023-01-01T05:03:38;98562.00;;;0.21;100.00
27202;BME280;14717;46.924;15.474;2023-01-01T05:06:06;98564.94;;;0.06;100.00
27202;BME280;14717;46.924;15.474;2023-01-01T05:08:32;98566.19;;;0.04;100.00
27202;BME280;14717;46.924;15.474;2023-01-01T05:11:02;98570.56;;;0.18;100.00
27202;BME280;14717;46.924;15.474;2023-01-01T05:13:28;98565.31;;;0.23;100.00
27202;BME280;14717;46.924;15.474;2023-01-01T05:15:54;98573.25;;;0.31;100.00
27202;BME280;14717;46.924;15.474;2023-01-01T05:18:19;98565.09;;;0.31;100.00
27202;BME280;14717;46.924;15.474;2023-01-01T05:20:44;98571.22;;;0.20;100.00
27202;BME280;14717;46.924;15.474;2023-01-01T05:23:10;98563.69;;;0.22;100.00
27202;BME280;14717;46.924;15.474;2023-01-01T05:25:35;98561.78;;;0.22;100.00
27202;BME280;14717;46.924;15.474;2023-01-01T05:28:00;98559.69;;;0.18;100.00
27202;BME280;14717;46.924;15.474;2023-01-01T05:30:26;98576.63;;;0.20;100.00
27202;BME280;14717;46.924;15.474;2023-01-01T05:32:51;98583.31;;;0.24;100.00
27202;BME280;14717;46.924;15.474;2023-01-01T05:35:16;98597.09;;;0.16;100.00
27202;BME280;14717;46.924;15.474;2023-01-01T05:37:42;98579.78;;;0.17;100.00
27202;BME280;14717;46.924;15.474;2023-01-01T05:40:07;98580.78;;;0.22;100.00
27202;BME280;14717;46.924;15.474;2023-01-01T05:42:33;98571.81;;;0.28;100.00
27202;BME280;14717;46.924;15.474;2023-01-01T05:45:00;98575.78;;;0.32;100.00
27202;BME280;14717;46.924;15.474;2023-01-01T05:47:26;98568.69;;;0.25;100.00
27202;BME280;14717;46.924;15.474;2023-01-01T05:49:52;98568.50;;;0.20;100.00
27202;BME280;14717;46.924;15.474;2023-01-01T05:52:17;98571.22;;;0.20;100.00
27202;BME280;14717;46.924;15.474;2023-01-01T05:54:42;98560.75;;;0.17;100.00
27202;BME280;14717;46.924;15.474;2023-01-01T05:57:08;98551.56;;;0.11;100.00
27202;BME280;14717;46.924;15.474;2023-01-01T05:59:33;98564.50;;;0.16;100.00
27202;BME280;14717;46.924;15.474;2023-01-01T06:01:58;98563.25;;;0.25;100.00
27202;BME280;14717;46.924;15.474;2023-01-01T06:04:24;98563.88;;;0.33;100.00
27202;BME280;14717;46.924;15.474;2023-01-01T06:06:49;98565.72;;;0.33;100.00
27202;BME280;14717;46.924;15.474;2023-01-01T06:09:14;98551.53;;;0.31;100.00
27202;BME280;14717;46.924;15.474;2023-01-01T06:11:40;98556.53;;;0.34;100.00
27202;BME280;14717;46.924;15.474;2023-01-01T06:14:05;98567.81;;;0.37;100.00
27202;BME280;14717;46.924;15.474;2023-01-01T06:16:30;98563.00;;;0.39;100.00
27202;BME280;14717;46.924;15.474;2023-01-01T06:18:56;98560.28;;;0.33;100.00
27202;BME280;14717;46.924;15.474;2023-01-01T06:21:23;98558.84;;;0.37;100.00
27202;BME280;14717;46.924;15.474;2023-01-01T06:23:49;98568.84;;;0.42;100.00
27202;BME280;14717;46.924;15.474;2023-01-01T06:26:20;98571.13;;;0.45;100.00
27202;BME280;14717;46.924;15.474;2023-01-01T06:28:46;98574.53;;;0.35;100.00
27202;BME280;14717;46.924;15.474;2023-01-01T06:31:14;98577.66;;;0.38;100.00
27202;BME280;14717;46.924;15.474;2023-01-01T06:33:40;98576.59;;;0.33;100.00
27202;BME280;14717;46.924;15.474;2023-01-01T06:36:08;98579.09;;;0.28;100.00
27202;BME280;14717;46.924;15.474;2023-01-01T06:38:35;98586.22;;;0.29;100.00
27202;BME280;14717;46.924;15.474;2023-01-01T06:41:03;98580.78;;;0.29;100.00
27202;BME280;14717;46.924;15.474;2023-01-01T06:43:31;98580.59;;;0.30;100.00
27202;BME280;14717;46.924;15.474;2023-01-01T06:46:01;98590.84;;;0.28;100.00
27202;BME280;14717;46.924;15.474;2023-01-01T06:48:28;98586.63;;;0.39;100.00
27202;BME280;14717;46.924;15.474;2023-01-01T06:50:53;98575.75;;;0.39;100.00
27202;BME280;14717;46.924;15.474;2023-01-01T06:53:22;98578.91;;;0.36;100.00
27202;BME280;14717;46.924;15.474;2023-01-01T06:55:48;98575.16;;;0.24;100.00
27202;BME280;14717;46.924;15.474;2023-01-01T06:58:14;98570.34;;;0.32;100.00
27202;BME280;14717;46.924;15.474;2023-01-01T07:00:39;98581.41;;;0.31;100.00
27202;BME280;14717;46.924;15.474;2023-01-01T07:03:04;98587.06;;;0.29;100.00
27202;BME280;14717;46.924;15.474;2023-01-01T07:05:30;98591.84;;;0.34;100.00
27202;BME280;14717;46.924;15.474;2023-01-01T07:07:55;98594.34;;;0.42;100.00
27202;BME280;14717;46.924;15.474;2023-01-01T07:10:20;98597.25;;;0.53;100.00
27202;BME280;14717;46.924;15.474;2023-01-01T07:12:46;98603.75;;;0.39;100.00
27202;BME280;14717;46.924;15.474;2023-01-01T07:15:11;98610.66;;;0.42;100.00
27202;BME280;14717;46.924;15.474;2023-01-01T07:17:36;98603.31;;;0.48;100.00
27202;BME280;14717;46.924;15.474;2023-01-01T07:20:02;98611.88;;;0.58;100.00
27202;BME280;14717;46.924;15.474;2023-01-01T07:22:27;98615.00;;;0.68;100.00
27202;BME280;14717;46.924;15.474;2023-01-01T07:24:53;98617.50;;;0.76;100.00
27202;BME280;14717;46.924;15.474;2023-01-01T07:27:18;98624.16;;;0.80;100.00
27202;BME280;14717;46.924;15.474;2023-01-01T07:29:43;98618.72;;;0.80;100.00
27202;BME280;14717;46.924;15.474;2023-01-01T07:32:12;98620.00;;;0.78;100.00
27202;BME280;14717;46.924;15.474;2023-01-01T07:34:39;98625.22;;;0.85;100.00
27202;BME280;14717;46.924;15.474;2023-01-01T07:37:04;98624.34;;;0.85;100.00
27202;BME280;14717;46.924;15.474;2023-01-01T07:39:30;98634.59;;;0.89;100.00
27202;BME280;14717;46.924;15.474;2023-01-01T07:41:55;98616.78;;;1.00;100.00
27202;BME280;14717;46.924;15.474;2023-01-01T07:44:20;98630.97;;;1.02;100.00
27202;BME280;14717;46.924;15.474;2023-01-01T07:46:46;98641.22;;;1.13;100.00
27202;BME280;14717;46.924;15.474;2023-01-01T07:49:11;98649.78;;;1.16;100.00
27202;BME280;14717;46.924;15.474;2023-01-01T07:51:36;98648.28;;;1.27;100.00
27202;BME280;14717;46.924;15.474;2023-01-01T07:54:02;98658.28;;;1.32;100.00
27202;BME280;14717;46.924;15.474;2023-01-01T07:56:27;98659.31;;;1.38;100.00
27202;BME280;14717;46.924;15.474;2023-01-01T07:58:52;98653.47;;;1.34;100.00
27202;BME280;14717;46.924;15.474;2023-01-01T08:01:18;98658.09;;;1.27;100.00
27202;BME280;14717;46.924;15.474;2023-01-01T08:03:44;98658.06;;;1.34;100.00
27202;BME280;14717;46.924;15.474;2023-01-01T08:06:14;98654.03;;;1.43;100.00
27202;BME280;14717;46.924;15.474;2023-01-01T08:08:39;98660.28;;;1.56;100.00
27202;BME280;14717;46.924;15.474;2023-01-01T08:11:05;98648.91;;;1.66;100.00
27202;BME280;14717;46.924;15.474;2023-01-01T08:13:30;98649.94;;;1.71;100.00
27202;BME280;14717;46.924;15.474;2023-01-01T08:15:57;98648.81;;;1.85;100.00
27202;BME280;14717;46.924;15.474;2023-01-01T08:18:22;98646.25;;;1.90;100.00
27202;BME280;14717;46.924;15.474;2023-01-01T08:20:47;98649.94;;;2.02;100.00
27202;BME280;14717;46.924;15.474;2023-01-01T08:23:13;98641.34;;;2.05;100.00
27202;BME280;14717;46.924;15.474;2023-01-01T08:25:38;98652.09;;;1.93;100.00
27202;BME280;14717;46.924;15.474;2023-01-01T08:28:04;98657.75;;;1.92;100.00
27202;BME280;14717;46.924;15.474;2023-01-01T08:30:29;98668.06;;;1.83;100.00
27202;BME280;14717;46.924;15.474;2023-01-01T08:32:54;98673.06;;;1.93;100.00
27202;BME280;14717;46.924;15.474;2023-01-01T08:35:20;98670.88;;;2.08;100.00
27202;BME280;14717;46.924;15.474;2023-01-01T08:37:45;98662.94;;;2.00;100.00
27202;BME280;14717;46.924;15.474;2023-01-01T08:40:11;98661.44;;;2.04;100.00
27202;BME280;14717;46.924;15.474;2023-01-01T08:42:37;98662.78;;;2.25;100.00
27202;BME280;14717;46.924;15.474;2023-01-01T08:45:03;98668.09;;;2.38;100.00
27202;BME280;14717;46.924;15.474;2023-01-01T08:47:28;98667.81;;;2.46;100.00
27202;BME280;14717;46.924;15.474;2023-01-01T08:49:54;98660.38;;;2.59;100.00
27202;BME280;14717;46.924;15.474;2023-01-01T08:52:20;98668.88;;;2.69;100.00
27202;BME280;14717;46.924;15.474;2023-01-01T08:54:46;98676.34;;;2.80;100.00
27202;BME280;14717;46.924;15.474;2023-01-01T08:57:11;98675.66;;;2.85;100.00
27202;BME280;14717;46.924;15.474;2023-01-01T08:59:37;98677.31;;;2.86;100.00
27202;BME280;14717;46.924;15.474;2023-01-01T09:02:03;98693.19;;;2.95;100.00
27202;BME280;14717;46.924;15.474;2023-01-01T09:04:29;98701.47;;;3.06;100.00
27202;BME280;14717;46.924;15.474;2023-01-01T09:06:54;98697.31;;;3.22;100.00
27202;BME280;14717;46.924;15.474;2023-01-01T09:09:19;98696.34;;;3.34;100.00
27202;BME280;14717;46.924;15.474;2023-01-01T09:11:55;98690.97;;;3.45;100.00
27202;BME280;14717;46.924;15.474;2023-01-01T09:14:23;98692.75;;;3.69;100.00
27202;BME280;14717;46.924;15.474;2023-01-01T09:16:49;98689.63;;;3.83;100.00
27202;BME280;14717;46.924;15.474;2023-01-01T09:19:14;98699.22;;;4.04;100.00
27202;BME280;14717;46.924;15.474;2023-01-01T09:21:40;98687.78;;;4.24;100.00
27202;BME280;14717;46.924;15.474;2023-01-01T09:24:05;98682.94;;;4.38;100.00
27202;BME280;14717;46.924;15.474;2023-01-01T09:26:31;98681.53;;;4.47;100.00
27202;BME280;14717;46.924;15.474;2023-01-01T09:28:56;98686.09;;;4.64;100.00
27202;BME280;14717;46.924;15.474;2023-01-01T09:31:22;98674.31;;;4.86;100.00
27202;BME280;14717;46.924;15.474;2023-01-01T09:33:47;98684.34;;;4.92;100.00
27202;BME280;14717;46.924;15.474;2023-01-01T09:38:48;98681.59;;;5.15;100.00
27202;BME280;14717;46.924;15.474;2023-01-01T09:41:19;98694.47;;;5.26;100.00
27202;BME280;14717;46.924;15.474;2023-01-01T09:46:36;98692.66;;;5.43;100.00
27202;BME280;14717;46.924;15.474;2023-01-01T09:49:06;98693.22;;;5.67;99.62
27202;BME280;14717;46.924;15.474;2023-01-01T09:51:35;98699.03;;;5.93;97.81
27202;BME280;14717;46.924;15.474;2023-01-01T09:54:26;98691.94;;;6.09;97.92
27202;BME280;14717;46.924;15.474;2023-01-01T09:56:55;98695.06;;;6.29;98.54
27202;BME280;14717;46.924;15.474;2023-01-01T09:59:21;98705.53;;;6.59;96.32
27202;BME280;14717;46.924;15.474;2023-01-01T10:05:48;98692.41;;;6.94;94.31
27202;BME280;14717;46.924;15.474;2023-01-01T10:12:53;98687.31;;;7.35;92.47
27202;BME280;14717;46.924;15.474;2023-01-01T10:15:41;98682.72;;;7.40;91.63
27202;BME280;14717;46.924;15.474;2023-01-01T10:18:16;98687.13;;;7.41;92.27
27202;BME280;14717;46.924;15.474;2023-01-01T10:20:56;98693.06;;;7.33;92.51
27202;BME280;14717;46.924;15.474;2023-01-01T10:23:25;98684.47;;;7.46;92.14
27202;BME280;14717;46.924;15.474;2023-01-01T10:25:54;98679.75;;;7.63;92.92
27202;BME280;14717;46.924;15.474;2023-01-01T10:30:50;98690.50;;;7.86;91.34
27202;BME280;14717;46.924;15.474;2023-01-01T10:33:17;98687.56;;;7.92;90.31
27202;BME280;14717;46.924;15.474;2023-01-01T10:35:48;98686.59;;;8.03;89.67
27202;BME280;14717;46.924;15.474;2023-01-01T10:38:22;98684.06;;;8.18;88.70
27202;BME280;14717;46.924;15.474;2023-01-01T10:40:49;98681.16;;;8.29;88.30
27202;BME280;14717;46.924;15.474;2023-01-01T10:43:16;98668.13;;;8.46;88.47
27202;BME280;14717;46.924;15.474;2023-01-01T10:45:49;98671.03;;;8.61;87.90
27202;BME280;14717;46.924;15.474;2023-01-01T10:48:18;98664.44;;;8.62;85.86
27202;BME280;14717;46.924;15.474;2023-01-01T10:56:05;98656.28;;;8.46;87.31
27202;BME280;14717;46.924;15.474;2023-01-01T10:58:54;98661.91;;;8.55;86.44
27202;BME280;14717;46.924;15.474;2023-01-01T11:01:30;98658.88;;;8.57;86.08
27202;BME280;14717;46.924;15.474;2023-01-01T11:06:37;98653.03;;;8.80;86.10
27202;BME280;14717;46.924;15.474;2023-01-01T11:09:05;98659.69;;;8.84;83.73
27202;BME280;14717;46.924;15.474;2023-01-01T11:11:45;98650.81;;;8.77;85.09
27202;BME280;14717;46.924;15.474;2023-01-01T11:14:38;98640.53;;;8.67;85.71
27202;BME280;14717;46.924;15.474;2023-01-01T11:17:09;98643.19;;;8.57;86.12
27202;BME280;14717;46.924;15.474;2023-01-01T11:19:36;98631.84;;;8.54;87.40
27202;BME280;14717;46.924;15.474;2023-01-01T11:22:04;98628.97;;;8.70;88.41
27202;BME280;14717;46.924;15.474;2023-01-01T11:24:30;98626.69;;;8.93;86.04
27202;BME280;14717;46.924;15.474;2023-01-01T11:27:20;98623.59;;;9.21;82.45
27202;BME280;14717;46.924;15.474;2023-01-01T11:29:47;98622.13;;;9.45;81.28
27202;BME280;14717;46.924;15.474;2023-01-01T11:32:16;98620.81;;;9.62;81.06
27202;BME280;14717;46.924;15.474;2023-01-01T11:34:45;98618.13;;;9.77;79.59
27202;BME280;14717;46.924;15.474;2023-01-01T11:40:03;98604.19;;;9.98;79.00
27202;BME280;14717;46.924;15.474;2023-01-01T11:42:34;98604.38;;;9.92;78.64
27202;BME280;14717;46.924;15.474;2023-01-01T11:45:08;98598.56;;;9.83;78.79
27202;BME280;14717;46.924;15.474;2023-01-01T11:47:39;98599.94;;;9.76;79.32
27202;BME280;14717;46.924;15.474;2023-01-01T11:52:51;98608.63;;;10.04;78.11
27202;BME280;14717;46.924;15.474;2023-01-01T11:55:25;98599.28;;;10.35;76.50
27202;BME280;14717;46.924;15.474;2023-01-01T11:57:58;98598.78;;;10.48;76.36
27202;BME280;14717;46.924;15.474;2023-01-01T12:00:30;98590.50;;;10.58;74.86
27202;BME280;14717;46.924;15.474;2023-01-01T12:03:05;98591.63;;;10.76;73.19
27202;BME280;14717;46.924;15.474;2023-01-01T12:05:51;98590.22;;;10.84;72.05
27202;BME280;14717;46.924;15.474;2023-01-01T12:08:55;98593.53;;;10.86;70.14
27202;BME280;14717;46.924;15.474;2023-01-01T12:11:42;98591.63;;;10.76;72.38
27202;BME280;14717;46.924;15.474;2023-01-01T12:14:30;98588.59;;;10.78;71.52
27202;BME280;14717;46.924;15.474;2023-01-01T12:17:11;98580.56;;;10.76;71.45
27202;BME280;14717;46.924;15.474;2023-01-01T12:22:25;98573.66;;;10.59;72.61
27202;BME280;14717;46.924;15.474;2023-01-01T12:24:51;98582.19;;;10.53;72.60
27202;BME280;14717;46.924;15.474;2023-01-01T12:27:37;98585.50;;;10.45;74.09
27202;BME280;14717;46.924;15.474;2023-01-01T12:35:41;98581.66;;;10.61;75.36
27202;BME280;14717;46.924;15.474;2023-01-01T12:38:18;98582.75;;;10.79;73.90
27202;BME280;14717;46.924;15.474;2023-01-01T12:40:58;98585.50;;;10.84;72.77
27202;BME280;14717;46.924;15.474;2023-01-01T12:43:41;98586.91;;;11.02;72.57
27202;BME280;14717;46.924;15.474;2023-01-01T12:48:57;98590.47;;;11.07;73.66
27202;BME280;14717;46.924;15.474;2023-01-01T12:59:47;98579.88;;;11.68;70.90
27202;BME280;14717;46.924;15.474;2023-01-01T13:02:22;98585.34;;;11.88;69.75
27202;BME280;14717;46.924;15.474;2023-01-01T13:04:51;98590.84;;;11.98;70.08
27202;BME280;14717;46.924;15.474;2023-01-01T13:07:34;98596.84;;;12.15;69.11
27202;BME280;14717;46.924;15.474;2023-01-01T13:10:09;98590.69;;;12.23;67.89
27202;BME280;14717;46.924;15.474;2023-01-01T13:12:41;98585.13;;;12.28;68.55
27202;BME280;14717;46.924;15.474;2023-01-01T13:20:59;98583.19;;;12.66;66.00
27202;BME280;14717;46.924;15.474;2023-01-01T13:37:24;98595.94;;;13.05;64.35
27202;BME280;14717;46.924;15.474;2023-01-01T13:50:27;98612.72;;;12.47;75.04
27202;BME280;14717;46.924;15.474;2023-01-01T14:04:26;98631.63;;;12.31;77.59
27202;BME280;14717;46.924;15.474;2023-01-01T14:06:53;98631.63;;;12.31;77.02
27202;BME280;14717;46.924;15.474;2023-01-01T14:09:19;98628.34;;;12.24;78.09
27202;BME280;14717;46.924;15.474;2023-01-01T14:11:46;98635.03;;;12.23;79.15
27202;BME280;14717;46.924;15.474;2023-01-01T14:14:26;98639.19;;;12.20;80.54
27202;BME280;14717;46.924;15.474;2023-01-01T14:16:57;98647.22;;;12.17;81.23
27202;BME280;14717;46.924;15.474;2023-01-01T14:19:25;98644.47;;;12.17;81.63
27202;BME280;14717;46.924;15.474;2023-01-01T14:21:51;98645.56;;;12.16;81.56
27202;BME280;14717;46.924;15.474;2023-01-01T14:24:19;98650.56;;;12.14;81.45
27202;BME280;14717;46.924;15.474;2023-01-01T14:26:45;98649.75;;;12.13;81.26
27202;BME280;14717;46.924;15.474;2023-01-01T14:29:18;98651.72;;;12.08;81.42
27202;BME280;14717;46.924;15.474;2023-01-01T14:31:45;98660.31;;;12.01;81.81
27202;BME280;14717;46.924;15.474;2023-01-01T14:34:31;98659.25;;;11.88;81.20
27202;BME280;14717;46.924;15.474;2023-01-01T14:36:59;98652.13;;;11.72;82.65
27202;BME280;14717;46.924;15.474;2023-01-01T14:39:33;98664.56;;;11.64;81.79
27202;BME280;14717;46.924;15.474;2023-01-01T14:42:11;98674.03;;;11.53;82.25
27202;BME280;14717;46.924;15.474;2023-01-01T14:44:48;98675.13;;;11.52;82.22
27202;BME280;14717;46.924;15.474;2023-01-01T14:47:23;98677.88;;;11.38;81.92
27202;BME280;14717;46.924;15.474;2023-01-01T14:49:50;98678.97;;;11.32;81.77
27202;BME280;14717;46.924;15.474;2023-01-01T14:52:24;98673.72;;;11.30;81.43
27202;BME280;14717;46.924;15.474;2023-01-01T14:54:52;98674.28;;;11.27;81.06